sensor_id;sensor_type;location;lat;lon;timestamp;temperature;humidity
59309;DHT22;48433;53.016;-2.260;2022-09-23T00:01:19;13.90;99.90
59309;DHT22;48433;53.016;-2.260;2022-09-23T00:03:47;13.80;99.90
59309;DHT22;48433;53.016;-2.260;2022-09-23T00:06:18;13.80;99.90
59309;DHT22;48433;53.016;-2.260;2022-09-23T00:08:47;13.80;99.90
59309;DHT22;48433;53.016;-2.260;2022-09-23T00:11:23;13.90;99.90
59309;DHT22;48433;53.016;-2.260;2022-09-23T00:13:54;13.90;99.90
59309;DHT22;48433;53.016;-2.260;2022-09-23T00:16:25;13.90;99.90
59309;DHT22;48433;53.016;-2.260;2022-09-23T00:18:55;13.90;99.90
59309;DHT22;48433;53.016;-2.260;2022-09-23T00:21:23;14.00;99.90
59309;DHT22;48433;53.016;-2.260;2022-09-23T00:23:51;14.00;99.90
59309;DHT22;48433;53.016;-2.260;2022-09-23T00:26:20;14.00;99.90
59309;DHT22;48433;53.016;-2.260;2022-09-23T00:28:49;14.00;99.90
59309;DHT22;48433;53.016;-2.260;2022-09-23T00:31:19;14.00;99.90
59309;DHT22;48433;53.016;-2.260;2022-09-23T00:33:55;14.00;99.90
59309;DHT22;48433;53.016;-2.260;2022-09-23T00:36:24;14.00;99.90
59309;DHT22;48433;53.016;-2.260;2022-09-23T00:38:52;14.00;99.90
59309;DHT22;48433;53.016;-2.260;2022-09-23T00:41:20;14.00;99.90
59309;DHT22;48433;53.016;-2.260;2022-09-23T00:43:52;14.10;99.90
59309;DHT22;48433;53.016;-2.260;2022-09-23T00:46:25;14.10;99.90
59309;DHT22;48433;53.016;-2.260;2022-09-23T00:49:09;14.00;99.90
59309;DHT22;48433;53.016;-2.260;2022-09-23T00:51:42;14.00;99.90
59309;DHT22;48433;53.016;-2.260;2022-09-23T00:54:11;14.00;99.90
59309;DHT22;48433;53.016;-2.260;2022-09-23T00:56:38;14.00;99.90
59309;DHT22;48433;53.016;-2.260;2022-09-23T00:59:08;13.90;99.90
59309;DHT22;48433;53.016;-2.260;2022-09-23T01:01:37;13.90;99.90
59309;DHT22;48433;53.016;-2.260;2022-09-23T01:04:06;13.80;99.90
59309;DHT22;48433;53.016;-2.260;2022-09-23T01:06:34;13.80;99.90
59309;DHT22;48433;53.016;-2.260;2022-09-23T01:09:02;13.80;99.90
59309;DHT22;48433;53.016;-2.260;2022-09-23T01:17:49;13.70;99.90
59309;DHT22;48433;53.016;-2.260;2022-09-23T01:23:34;13.50;99.90
59309;DHT22;48433;53.016;-2.260;2022-09-23T01:36:47;13.20;99.90
59309;DHT22;48433;53.016;-2.260;2022-09-23T01:39:39;13.20;99.90
59309;DHT22;48433;53.016;-2.260;2022-09-23T01:45:24;13.20;99.90
59309;DHT22;48433;53.016;-2.260;2022-09-23T01:48:00;13.20;99.90
59309;DHT22;48433;53.016;-2.260;2022-09-23T01:50:33;13.20;99.90
59309;DHT22;48433;53.016;-2.260;2022-09-23T01:56:28;13.10;99.90
59309;DHT22;48433;53.016;-2.260;2022-09-23T01:59:23;13.10;99.90
59309;DHT22;48433;53.016;-2.260;2022-09-23T02:02:04;13.10;99.90
59309;DHT22;48433;53.016;-2.260;2022-09-23T02:04:39;13.00;99.90
59309;DHT22;48433;53.016;-2.260;2022-09-23T02:07:27;13.00;99.90
59309;DHT22;48433;53.016;-2.260;2022-09-23T02:10:06;13.00;99.90
59309;DHT22;48433;53.016;-2.260;2022-09-23T02:12:37;13.10;99.90
59309;DHT22;48433;53.016;-2.260;2022-09-23T02:15:17;13.10;99.90
59309;DHT22;48433;53.016;-2.260;2022-09-23T02:17:51;13.20;99.90
59309;DHT22;48433;53.016;-2.260;2022-09-23T02:20:28;13.20;99.90
59309;DHT22;48433;53.016;-2.260;2022-09-23T02:23:19;13.30;99.90
59309;DHT22;48433;53.016;-2.260;2022-09-23T02:26:02;13.30;99.90
59309;DHT22;48433;53.016;-2.260;2022-09-23T02:34:01;13.40;99.90
59309;DHT22;48433;53.016;-2.260;2022-09-23T02:39:31;13.40;99.90
59309;DHT22;48433;53.016;-2.260;2022-09-23T02:42:07;13.50;99.90
59309;DHT22;48433;53.016;-2.260;2022-09-23T02:44:36;13.50;99.90
59309;DHT22;48433;53.016;-2.260;2022-09-23T02:47:04;13.40;99.90
59309;DHT22;48433;53.016;-2.260;2022-09-23T02:49:33;13.50;99.90
59309;DHT22;48433;53.016;-2.260;2022-09-23T02:52:05;13.50;99.90
59309;DHT22;48433;53.016;-2.260;2022-09-23T02:54:34;13.40;99.90
59309;DHT22;48433;53.016;-2.260;2022-09-23T02:57:05;13.40;99.90
59309;DHT22;48433;53.016;-2.260;2022-09-23T02:59:34;13.40;99.90
59309;DHT22;48433;53.016;-2.260;2022-09-23T03:04:56;13.30;99.90
59309;DHT22;48433;53.016;-2.260;2022-09-23T03:10:23;13.30;99.90
59309;DHT22;48433;53.016;-2.260;2022-09-23T03:13:11;13.40;99.90
59309;DHT22;48433;53.016;-2.260;2022-09-23T03:18:51;13.40;99.90
59309;DHT22;48433;53.016;-2.260;2022-09-23T03:21:36;13.40;99.90
59309;DHT22;48433;53.016;-2.260;2022-09-23T03:24:07;13.40;99.90
59309;DHT22;48433;53.016;-2.260;2022-09-23T03:26:37;13.40;99.90
59309;DHT22;48433;53.016;-2.260;2022-09-23T03:29:07;13.40;99.90
59309;DHT22;48433;53.016;-2.260;2022-09-23T03:31:38;13.40;99.90
59309;DHT22;48433;53.016;-2.260;2022-09-23T03:34:15;13.40;99.90
59309;DHT22;48433;53.016;-2.260;2022-09-23T03:36:51;13.40;99.90
59309;DHT22;48433;53.016;-2.260;2022-09-23T03:39:41;13.40;99.90
59309;DHT22;48433;53.016;-2.260;2022-09-23T03:44:47;13.40;99.90
59309;DHT22;48433;53.016;-2.260;2022-09-23T03:47:15;13.40;99.90
59309;DHT22;48433;53.016;-2.260;2022-09-23T03:49:45;13.40;99.90
59309;DHT22;48433;53.016;-2.260;2022-09-23T03:52:15;13.30;99.90
59309;DHT22;48433;53.016;-2.260;2022-09-23T03:54:42;13.30;99.90
59309;DHT22;48433;53.016;-2.260;2022-09-23T03:57:11;13.30;99.90
59309;DHT22;48433;53.016;-2.260;2022-09-23T03:59:39;13.30;99.90
59309;DHT22;48433;53.016;-2.260;2022-09-23T04:02:07;13.30;99.90
59309;DHT22;48433;53.016;-2.260;2022-09-23T04:04:36;13.30;99.90
59309;DHT22;48433;53.016;-2.260;2022-09-23T04:07:04;13.30;99.90
59309;DHT22;48433;53.016;-2.260;2022-09-23T04:09:31;13.20;99.90
59309;DHT22;48433;53.016;-2.260;2022-09-23T04:11:59;13.20;99.90
59309;DHT22;48433;53.016;-2.260;2022-09-23T04:14:27;13.20;99.90
59309;DHT22;48433;53.016;-2.260;2022-09-23T04:16:55;13.20;99.90
59309;DHT22;48433;53.016;-2.260;2022-09-23T04:19:22;13.20;99.90
59309;DHT22;48433;53.016;-2.260;2022-09-23T04:21:50;13.10;99.90
59309;DHT22;48433;53.016;-2.260;2022-09-23T04:24:17;13.10;99.90
59309;DHT22;48433;53.016;-2.260;2022-09-23T04:26:45;13.10;99.90
59309;DHT22;48433;53.016;-2.260;2022-09-23T04:29:16;13.10;99.90
59309;DHT22;48433;53.016;-2.260;2022-09-23T04:31:43;13.10;99.90
59309;DHT22;48433;53.016;-2.260;2022-09-23T04:34:11;13.10;99.90
59309;DHT22;48433;53.016;-2.260;2022-09-23T04:36:39;13.00;99.90
59309;DHT22;48433;53.016;-2.260;2022-09-23T04:39:06;13.10;99.90
59309;DHT22;48433;53.016;-2.260;2022-09-23T04:41:34;13.00;99.90
59309;DHT22;48433;53.016;-2.260;2022-09-23T04:44:02;13.00;99.90
59309;DHT22;48433;53.016;-2.260;2022-09-23T04:46:29;13.00;99.90
59309;DHT22;48433;53.016;-2.260;2022-09-23T04:48:57;13.00;99.90
59309;DHT22;48433;53.016;-2.260;2022-09-23T04:51:26;13.00;99.90
59309;DHT22;48433;53.016;-2.260;2022-09-23T04:53:54;13.00;99.90
59309;DHT22;48433;53.016;-2.260;2022-09-23T04:56:24;13.00;99.90
59309;DHT22;48433;53.016;-2.260;2022-09-23T04:58:52;13.00;99.90
59309;DHT22;48433;53.016;-2.260;2022-09-23T05:01:26;13.00;99.90
59309;DHT22;48433;53.016;-2.260;2022-09-23T05:03:59;13.00;99.90
59309;DHT22;48433;53.016;-2.260;2022-09-23T05:06:29;13.00;99.90
59309;DHT22;48433;53.016;-2.260;2022-09-23T05:08:58;13.00;99.90
59309;DHT22;48433;53.016;-2.260;2022-09-23T05:11:28;12.90;99.90
59309;DHT22;48433;53.016;-2.260;2022-09-23T05:13:56;12.90;99.90
59309;DHT22;48433;53.016;-2.260;2022-09-23T05:16:24;12.90;99.90
59309;DHT22;48433;53.016;-2.260;2022-09-23T05:18:53;12.90;99.90
59309;DHT22;48433;53.016;-2.260;2022-09-23T05:21:22;12.80;99.90
59309;DHT22;48433;53.016;-2.260;2022-09-23T05:23:52;12.80;99.90
59309;DHT22;48433;53.016;-2.260;2022-09-23T05:26:23;12.80;99.90
59309;DHT22;48433;53.016;-2.260;2022-09-23T05:28:53;12.80;99.90
59309;DHT22;48433;53.016;-2.260;2022-09-23T05:31:22;12.80;99.90
59309;DHT22;48433;53.016;-2.260;2022-09-23T05:33:53;12.80;99.90
59309;DHT22;48433;53.016;-2.260;2022-09-23T05:36:22;12.80;99.90
59309;DHT22;48433;53.016;-2.260;2022-09-23T05:38:50;12.70;99.90
59309;DHT22;48433;53.016;-2.260;2022-09-23T05:41:20;12.70;99.90
59309;DHT22;48433;53.016;-2.260;2022-09-23T05:43:52;12.60;99.90
59309;DHT22;48433;53.016;-2.260;2022-09-23T05:46:25;12.60;99.90
59309;DHT22;48433;53.016;-2.260;2022-09-23T05:48:55;12.50;99.90
59309;DHT22;48433;53.016;-2.260;2022-09-23T05:51:30;12.20;99.90
59309;DHT22;48433;53.016;-2.260;2022-09-23T05:53:59;12.40;99.90
59309;DHT22;48433;53.016;-2.260;2022-09-23T05:56:30;12.40;99.90
59309;DHT22;48433;53.016;-2.260;2022-09-23T05:58:59;12.40;99.90
59309;DHT22;48433;53.016;-2.260;2022-09-23T06:01:31;12.40;99.90
59309;DHT22;48433;53.016;-2.260;2022-09-23T06:04:02;12.40;99.90
59309;DHT22;48433;53.016;-2.260;2022-09-23T06:06:38;12.30;99.90
59309;DHT22;48433;53.016;-2.260;2022-09-23T06:09:08;12.30;99.90
59309;DHT22;48433;53.016;-2.260;2022-09-23T06:11:38;12.20;99.90
59309;DHT22;48433;53.016;-2.260;2022-09-23T06:14:06;12.20;99.90
59309;DHT22;48433;53.016;-2.260;2022-09-23T06:16:35;12.20;99.90
59309;DHT22;48433;53.016;-2.260;2022-09-23T06:19:03;12.20;99.90
59309;DHT22;48433;53.016;-2.260;2022-09-23T06:21:36;12.20;99.90
59309;DHT22;48433;53.016;-2.260;2022-09-23T06:24:06;12.20;99.90
59309;DHT22;48433;53.016;-2.260;2022-09-23T06:26:35;12.20;99.90
59309;DHT22;48433;53.016;-2.260;2022-09-23T06:29:10;12.20;99.90
59309;DHT22;48433;53.016;-2.260;2022-09-23T06:31:38;12.20;99.90
59309;DHT22;48433;53.016;-2.260;2022-09-23T06:34:09;12.20;99.90
59309;DHT22;48433;53.016;-2.260;2022-09-23T06:36:42;12.20;99.90
59309;DHT22;48433;53.016;-2.260;2022-09-23T06:39:13;12.10;99.90
59309;DHT22;48433;53.016;-2.260;2022-09-23T06:41:41;12.10;99.90
59309;DHT22;48433;53.016;-2.260;2022-09-23T06:44:13;12.00;99.90
59309;DHT22;48433;53.016;-2.260;2022-09-23T06:46:41;11.90;99.90
59309;DHT22;48433;53.016;-2.260;2022-09-23T06:49:08;11.90;99.90
59309;DHT22;48433;53.016;-2.260;2022-09-23T06:51:37;11.80;99.90
59309;DHT22;48433;53.016;-2.260;2022-09-23T06:54:06;11.70;99.90
59309;DHT22;48433;53.016;-2.260;2022-09-23T06:56:34;11.60;99.90
59309;DHT22;48433;53.016;-2.260;2022-09-23T06:59:08;11.50;99.90
59309;DHT22;48433;53.016;-2.260;2022-09-23T07:01:37;11.50;99.90
59309;DHT22;48433;53.016;-2.260;2022-09-23T07:04:05;11.50;99.90
59309;DHT22;48433;53.016;-2.260;2022-09-23T07:06:34;11.50;99.90
59309;DHT22;48433;53.016;-2.260;2022-09-23T07:09:03;11.50;99.90
59309;DHT22;48433;53.016;-2.260;2022-09-23T07:11:31;11.50;99.90
59309;DHT22;48433;53.016;-2.260;2022-09-23T07:13:59;11.60;99.90
59309;DHT22;48433;53.016;-2.260;2022-09-23T07:16:27;11.70;99.90
59309;DHT22;48433;53.016;-2.260;2022-09-23T07:18:54;11.70;99.90
59309;DHT22;48433;53.016;-2.260;2022-09-23T07:21:22;11.80;99.90
59309;DHT22;48433;53.016;-2.260;2022-09-23T07:23:50;11.90;99.90
59309;DHT22;48433;53.016;-2.260;2022-09-23T07:26:19;12.00;99.90
59309;DHT22;48433;53.016;-2.260;2022-09-23T07:28:51;12.10;99.90
59309;DHT22;48433;53.016;-2.260;2022-09-23T07:31:19;12.20;99.90
59309;DHT22;48433;53.016;-2.260;2022-09-23T07:34:03;12.30;99.90
59309;DHT22;48433;53.016;-2.260;2022-09-23T07:36:30;12.50;99.90
59309;DHT22;48433;53.016;-2.260;2022-09-23T07:38:59;12.60;99.90
59309;DHT22;48433;53.016;-2.260;2022-09-23T07:41:30;12.70;99.90
59309;DHT22;48433;53.016;-2.260;2022-09-23T07:43:58;12.80;99.90
59309;DHT22;48433;53.016;-2.260;2022-09-23T07:46:28;12.90;99.90
59309;DHT22;48433;53.016;-2.260;2022-09-23T07:48:57;13.00;99.90
59309;DHT22;48433;53.016;-2.260;2022-09-23T07:51:27;13.10;99.90
59309;DHT22;48433;53.016;-2.260;2022-09-23T07:54:04;13.20;99.90
59309;DHT22;48433;53.016;-2.260;2022-09-23T07:56:35;13.40;99.90
59309;DHT22;48433;53.016;-2.260;2022-09-23T07:59:04;13.50;99.90
59309;DHT22;48433;53.016;-2.260;2022-09-23T08:01:34;13.60;99.90
59309;DHT22;48433;53.016;-2.260;2022-09-23T08:04:10;13.70;99.90
59309;DHT22;48433;53.016;-2.260;2022-09-23T08:06:41;13.90;99.90
59309;DHT22;48433;53.016;-2.260;2022-09-23T08:09:09;14.10;99.90
59309;DHT22;48433;53.016;-2.260;2022-09-23T08:11:38;14.40;99.90
59309;DHT22;48433;53.016;-2.260;2022-09-23T08:14:10;14.70;99.90
59309;DHT22;48433;53.016;-2.260;2022-09-23T08:16:39;15.00;99.90
59309;DHT22;48433;53.016;-2.260;2022-09-23T08:19:07;15.20;99.90
59309;DHT22;48433;53.016;-2.260;2022-09-23T08:21:35;15.50;99.90
59309;DHT22;48433;53.016;-2.260;2022-09-23T08:24:12;15.80;99.90
59309;DHT22;48433;53.016;-2.260;2022-09-23T08:26:41;16.10;99.90
59309;DHT22;48433;53.016;-2.260;2022-09-23T08:29:12;16.30;99.90
59309;DHT22;48433;53.016;-2.260;2022-09-23T08:31:40;16.50;99.90
59309;DHT22;48433;53.016;-2.260;2022-09-23T08:34:07;16.80;99.90
59309;DHT22;48433;53.016;-2.260;2022-09-23T08:36:35;17.10;99.90
59309;DHT22;48433;53.016;-2.260;2022-09-23T08:39:03;17.50;99.90
59309;DHT22;48433;53.016;-2.260;2022-09-23T08:49:37;19.00;99.90
59309;DHT22;48433;53.016;-2.260;2022-09-23T08:52:31;19.30;99.90
59309;DHT22;48433;53.016;-2.260;2022-09-23T08:55:02;19.60;99.90
59309;DHT22;48433;53.016;-2.260;2022-09-23T09:00:51;20.20;99.90
59309;DHT22;48433;53.016;-2.260;2022-09-23T09:03:23;20.50;99.90
59309;DHT22;48433;53.016;-2.260;2022-09-23T09:05:52;20.90;99.90
59309;DHT22;48433;53.016;-2.260;2022-09-23T09:08:29;21.20;99.90
59309;DHT22;48433;53.016;-2.260;2022-09-23T09:10:58;21.30;99.90
59309;DHT22;48433;53.016;-2.260;2022-09-23T09:13:34;21.40;99.90
59309;DHT22;48433;53.016;-2.260;2022-09-23T09:17:13;21.60;99.90
59309;DHT22;48433;53.016;-2.260;2022-09-23T09:19:52;21.90;99.00
59309;DHT22;48433;53.016;-2.260;2022-09-23T09:22:28;22.20;98.30
59309;DHT22;48433;53.016;-2.260;2022-09-23T09:27:46;22.50;96.10
59309;DHT22;48433;53.016;-2.260;2022-09-23T09:30:15;22.80;96.10
59309;DHT22;48433;53.016;-2.260;2022-09-23T09:37:48;23.50;94.00
59309;DHT22;48433;53.016;-2.260;2022-09-23T09:40:15;23.90;93.60
59309;DHT22;48433;53.016;-2.260;2022-09-23T09:42:47;24.00;92.10
59309;DHT22;48433;53.016;-2.260;2022-09-23T09:45:48;24.00;90.60
59309;DHT22;48433;53.016;-2.260;2022-09-23T09:48:51;24.00;89.50
59309;DHT22;48433;53.016;-2.260;2022-09-23T09:51:22;24.20;87.90
59309;DHT22;48433;53.016;-2.260;2022-09-23T09:53:50;24.30;88.40
59309;DHT22;48433;53.016;-2.260;2022-09-23T09:56:21;24.50;88.50
59309;DHT22;48433;53.016;-2.260;2022-09-23T09:59:17;24.60;85.20
59309;DHT22;48433;53.016;-2.260;2022-09-23T10:04:54;25.20;82.50
59309;DHT22;48433;53.016;-2.260;2022-09-23T10:07:30;25.60;81.90
59309;DHT22;48433;53.016;-2.260;2022-09-23T10:10:19;26.10;81.30
59309;DHT22;48433;53.016;-2.260;2022-09-23T10:13:13;26.30;74.50
59309;DHT22;48433;53.016;-2.260;2022-09-23T10:15:43;25.90;73.20
59309;DHT22;48433;53.016;-2.260;2022-09-23T10:18:36;25.20;74.70
59309;DHT22;48433;53.016;-2.260;2022-09-23T10:21:13;24.40;76.20
59309;DHT22;48433;53.016;-2.260;2022-09-23T10:23:43;24.00;77.00
59309;DHT22;48433;53.016;-2.260;2022-09-23T10:26:13;24.20;79.20
59309;DHT22;48433;53.016;-2.260;2022-09-23T10:28:54;24.70;78.70
59309;DHT22;48433;53.016;-2.260;2022-09-23T10:31:31;25.00;73.00
59309;DHT22;48433;53.016;-2.260;2022-09-23T10:34:24;24.80;72.90
59309;DHT22;48433;53.016;-2.260;2022-09-23T10:37:12;24.30;74.10
59309;DHT22;48433;53.016;-2.260;2022-09-23T10:39:40;23.80;76.80
59309;DHT22;48433;53.016;-2.260;2022-09-23T10:45:39;23.70;78.30
59309;DHT22;48433;53.016;-2.260;2022-09-23T10:48:50;23.30;78.90
59309;DHT22;48433;53.016;-2.260;2022-09-23T10:57:03;22.80;81.10
59309;DHT22;48433;53.016;-2.260;2022-09-23T11:08:12;25.00;72.70
59309;DHT22;48433;53.016;-2.260;2022-09-23T11:14:11;25.70;68.70
59309;DHT22;48433;53.016;-2.260;2022-09-23T11:29:52;25.70;64.70
59309;DHT22;48433;53.016;-2.260;2022-09-23T11:32:25;26.00;62.30
59309;DHT22;48433;53.016;-2.260;2022-09-23T11:37:44;25.80;61.60
59309;DHT22;48433;53.016;-2.260;2022-09-23T11:42:58;26.40;59.70
59309;DHT22;48433;53.016;-2.260;2022-09-23T11:45:30;26.40;58.90
59309;DHT22;48433;53.016;-2.260;2022-09-23T11:48:12;26.90;59.60
59309;DHT22;48433;53.016;-2.260;2022-09-23T11:50:54;27.40;57.40
59309;DHT22;48433;53.016;-2.260;2022-09-23T12:02:17;25.80;56.20
59309;DHT22;48433;53.016;-2.260;2022-09-23T12:13:43;21.30;70.60
59309;DHT22;48433;53.016;-2.260;2022-09-23T12:24:49;24.40;67.40
59309;DHT22;48433;53.016;-2.260;2022-09-23T12:27:28;25.90;59.70
59309;DHT22;48433;53.016;-2.260;2022-09-23T12:30:01;25.70;58.50
59309;DHT22;48433;53.016;-2.260;2022-09-23T12:32:30;24.90;59.10
59309;DHT22;48433;53.016;-2.260;2022-09-23T12:34:59;24.00;60.40
59309;DHT22;48433;53.016;-2.260;2022-09-23T12:37:34;23.20;62.80
59309;DHT22;48433;53.016;-2.260;2022-09-23T12:42:46;24.50;62.50
59309;DHT22;48433;53.016;-2.260;2022-09-23T12:48:03;26.30;57.90
59309;DHT22;48433;53.016;-2.260;2022-09-23T12:51:11;27.00;56.00
59309;DHT22;48433;53.016;-2.260;2022-09-23T12:53:51;27.40;53.90
59309;DHT22;48433;53.016;-2.260;2022-09-23T13:01:25;29.00;50.80
59309;DHT22;48433;53.016;-2.260;2022-09-23T13:03:56;29.40;49.00
59309;DHT22;48433;53.016;-2.260;2022-09-23T13:06:54;29.70;48.30
59309;DHT22;48433;53.016;-2.260;2022-09-23T13:09:26;29.30;45.30
59309;DHT22;48433;53.016;-2.260;2022-09-23T13:12:00;28.60;45.30
59309;DHT22;48433;53.016;-2.260;2022-09-23T13:14:31;28.50;45.90
59309;DHT22;48433;53.016;-2.260;2022-09-23T13:16:59;28.60;46.30
59309;DHT22;48433;53.016;-2.260;2022-09-23T13:21:59;29.00;45.40
59309;DHT22;48433;53.016;-2.260;2022-09-23T13:24:43;29.20;45.80
59309;DHT22;48433;53.016;-2.260;2022-09-23T13:33:21;27.50;45.80
59309;DHT22;48433;53.016;-2.260;2022-09-23T13:35:52;26.60;48.60
59309;DHT22;48433;53.016;-2.260;2022-09-23T13:38:25;26.30;49.50
59309;DHT22;48433;53.016;-2.260;2022-09-23T13:40:58;25.80;50.30
59309;DHT22;48433;53.016;-2.260;2022-09-23T13:43:27;25.40;51.50
59309;DHT22;48433;53.016;-2.260;2022-09-23T13:45:58;25.80;51.90
59309;DHT22;48433;53.016;-2.260;2022-09-23T13:48:27;26.50;51.40
59309;DHT22;48433;53.016;-2.260;2022-09-23T13:50:55;26.80;50.10
59309;DHT22;48433;53.016;-2.260;2022-09-23T13:53:28;26.70;47.80
59309;DHT22;48433;53.016;-2.260;2022-09-23T13:56:11;26.60;47.10
59309;DHT22;48433;53.016;-2.260;2022-09-23T13:58:40;26.50;46.00
59309;DHT22;48433;53.016;-2.260;2022-09-23T14:01:33;26.40;46.40
59309;DHT22;48433;53.016;-2.260;2022-09-23T14:04:01;26.60;46.60
59309;DHT22;48433;53.016;-2.260;2022-09-23T14:06:30;26.10;46.80
59309;DHT22;48433;53.016;-2.260;2022-09-23T14:09:00;25.10;48.10
59309;DHT22;48433;53.016;-2.260;2022-09-23T14:11:31;24.00;50.20
59309;DHT22;48433;53.016;-2.260;2022-09-23T14:14:00;23.10;52.40
59309;DHT22;48433;53.016;-2.260;2022-09-23T14:16:38;22.50;54.50
59309;DHT22;48433;53.016;-2.260;2022-09-23T14:19:15;22.70;56.20
59309;DHT22;48433;53.016;-2.260;2022-09-23T14:21:47;23.60;54.80
59309;DHT22;48433;53.016;-2.260;2022-09-23T14:29:38;26.60;48.50
59309;DHT22;48433;53.016;-2.260;2022-09-23T14:32:18;26.60;47.90
59309;DHT22;48433;53.016;-2.260;2022-09-23T14:40:36;24.30;51.10
59309;DHT22;48433;53.016;-2.260;2022-09-23T14:43:24;24.30;52.60
59309;DHT22;48433;53.016;-2.260;2022-09-23T14:45:55;25.00;52.00
59309;DHT22;48433;53.016;-2.260;2022-09-23T14:48:26;25.90;50.70
59309;DHT22;48433;53.016;-2.260;2022-09-23T14:51:05;26.60;49.10
59309;DHT22;48433;53.016;-2.260;2022-09-23T14:53:41;27.10;47.90
59309;DHT22;48433;53.016;-2.260;2022-09-23T14:56:20;27.40;46.10
59309;DHT22;48433;53.016;-2.260;2022-09-23T14:58:56;27.70;43.50
59309;DHT22;48433;53.016;-2.260;2022-09-23T15:03:52;27.30;42.90
59309;DHT22;48433;53.016;-2.260;2022-09-23T15:06:21;26.50;43.90
59309;DHT22;48433;53.016;-2.260;2022-09-23T15:08:51;26.00;45.40
59309;DHT22;48433;53.016;-2.260;2022-09-23T15:11:21;25.50;46.00
59309;DHT22;48433;53.016;-2.260;2022-09-23T15:13:50;24.90;47.20
59309;DHT22;48433;53.016;-2.260;2022-09-23T15:16:25;24.00;48.90
59309;DHT22;48433;53.016;-2.260;2022-09-23T15:18:55;23.20;51.10
59309;DHT22;48433;53.016;-2.260;2022-09-23T15:21:28;22.60;52.90
59309;DHT22;48433;53.016;-2.260;2022-09-23T15:23:58;22.10;54.10
59309;DHT22;48433;53.016;-2.260;2022-09-23T15:26:45;22.00;55.50
59309;DHT22;48433;53.016;-2.260;2022-09-23T15:29:13;22.50;56.10
59309;DHT22;48433;53.016;-2.260;2022-09-23T15:31:41;23.40;55.60
59309;DHT22;48433;53.016;-2.260;2022-09-23T15:34:09;24.40;54.50
59309;DHT22;48433;53.016;-2.260;2022-09-23T15:36:37;25.10;52.70
59309;DHT22;48433;53.016;-2.260;2022-09-23T15:39:06;25.20;51.70
59309;DHT22;48433;53.016;-2.260;2022-09-23T15:41:35;25.20;52.10
59309;DHT22;48433;53.016;-2.260;2022-09-23T15:44:13;25.30;51.40
59309;DHT22;48433;53.016;-2.260;2022-09-23T15:46:45;25.60;50.90
59309;DHT22;48433;53.016;-2.260;2022-09-23T15:49:25;25.90;50.80
59309;DHT22;48433;53.016;-2.260;2022-09-23T15:51:58;25.80;50.20
59309;DHT22;48433;53.016;-2.260;2022-09-23T15:54:30;25.30;50.50
59309;DHT22;48433;53.016;-2.260;2022-09-23T15:56:58;24.60;51.40
59309;DHT22;48433;53.016;-2.260;2022-09-23T15:59:28;23.70;52.40
59309;DHT22;48433;53.016;-2.260;2022-09-23T16:02:00;23.00;53.60
59309;DHT22;48433;53.016;-2.260;2022-09-23T16:04:29;22.20;54.80
59309;DHT22;48433;53.016;-2.260;2022-09-23T16:06:57;21.60;56.20
59309;DHT22;48433;53.016;-2.260;2022-09-23T16:09:25;21.10;57.40
59309;DHT22;48433;53.016;-2.260;2022-09-23T16:11:56;20.60;58.50
59309;DHT22;48433;53.016;-2.260;2022-09-23T16:14:24;20.20;59.70
59309;DHT22;48433;53.016;-2.260;2022-09-23T16:16:52;19.80;61.10
59309;DHT22;48433;53.016;-2.260;2022-09-23T16:19:19;19.50;63.40
59309;DHT22;48433;53.016;-2.260;2022-09-23T16:21:47;19.20;63.60
59309;DHT22;48433;53.016;-2.260;2022-09-23T16:24:16;19.00;64.90
59309;DHT22;48433;53.016;-2.260;2022-09-23T16:26:46;18.80;65.90
59309;DHT22;48433;53.016;-2.260;2022-09-23T16:29:14;18.90;66.20
59309;DHT22;48433;53.016;-2.260;2022-09-23T16:31:42;19.30;66.20
59309;DHT22;48433;53.016;-2.260;2022-09-23T16:34:10;19.50;65.80
59309;DHT22;48433;53.016;-2.260;2022-09-23T16:36:42;19.60;65.70
59309;DHT22;48433;53.016;-2.260;2022-09-23T16:39:11;19.70;65.90
59309;DHT22;48433;53.016;-2.260;2022-09-23T16:41:39;19.90;65.70
59309;DHT22;48433;53.016;-2.260;2022-09-23T16:44:09;20.20;65.40
59309;DHT22;48433;53.016;-2.260;2022-09-23T16:46:38;20.20;64.70
59309;DHT22;48433;53.016;-2.260;2022-09-23T16:49:09;20.00;65.10
59309;DHT22;48433;53.016;-2.260;2022-09-23T16:51:38;20.00;65.90
59309;DHT22;48433;53.016;-2.260;2022-09-23T16:54:09;20.00;66.50
59309;DHT22;48433;53.016;-2.260;2022-09-23T16:56:40;20.00;66.80
59309;DHT22;48433;53.016;-2.260;2022-09-23T16:59:13;19.80;68.10
59309;DHT22;48433;53.016;-2.260;2022-09-23T17:01:41;19.60;68.20
59309;DHT22;48433;53.016;-2.260;2022-09-23T17:04:28;19.30;69.10
59309;DHT22;48433;53.016;-2.260;2022-09-23T17:06:55;19.10;70.10
59309;DHT22;48433;53.016;-2.260;2022-09-23T17:09:25;18.80;71.10
59309;DHT22;48433;53.016;-2.260;2022-09-23T17:12:19;18.60;72.10
59309;DHT22;48433;53.016;-2.260;2022-09-23T17:14:48;18.30;73.60
59309;DHT22;48433;53.016;-2.260;2022-09-23T17:17:16;18.00;74.60
59309;DHT22;48433;53.016;-2.260;2022-09-23T17:19:44;17.90;76.00
59309;DHT22;48433;53.016;-2.260;2022-09-23T17:22:11;17.80;77.00
59309;DHT22;48433;53.016;-2.260;2022-09-23T17:24:39;17.70;78.10
59309;DHT22;48433;53.016;-2.260;2022-09-23T17:27:07;17.50;78.80
59309;DHT22;48433;53.016;-2.260;2022-09-23T17:29:35;17.40;79.90
59309;DHT22;48433;53.016;-2.260;2022-09-23T17:32:02;17.20;80.90
59309;DHT22;48433;53.016;-2.260;2022-09-23T17:34:31;17.20;82.30
59309;DHT22;48433;53.016;-2.260;2022-09-23T17:36:59;17.00;83.70
59309;DHT22;48433;53.016;-2.260;2022-09-23T17:39:28;16.90;85.00
59309;DHT22;48433;53.016;-2.260;2022-09-23T17:41:58;16.70;86.30
59309;DHT22;48433;53.016;-2.260;2022-09-23T17:44:25;16.60;87.70
59309;DHT22;48433;53.016;-2.260;2022-09-23T17:46:53;16.50;89.10
59309;DHT22;48433;53.016;-2.260;2022-09-23T17:49:20;16.40;90.50
59309;DHT22;48433;53.016;-2.260;2022-09-23T17:51:50;16.20;90.90
59309;DHT22;48433;53.016;-2.260;2022-09-23T17:54:18;16.10;91.60
59309;DHT22;48433;53.016;-2.260;2022-09-23T17:56:45;16.00;92.30
59309;DHT22;48433;53.016;-2.260;2022-09-23T17:59:13;15.90;92.80
59309;DHT22;48433;53.016;-2.260;2022-09-23T18:01:40;15.70;93.40
59309;DHT22;48433;53.016;-2.260;2022-09-23T18:04:08;15.70;94.10
59309;DHT22;48433;53.016;-2.260;2022-09-23T18:06:36;15.50;94.70
59309;DHT22;48433;53.016;-2.260;2022-09-23T18:09:06;15.50;95.30
59309;DHT22;48433;53.016;-2.260;2022-09-23T18:11:40;15.30;95.90
59309;DHT22;48433;53.016;-2.260;2022-09-23T18:14:13;15.20;96.50
59309;DHT22;48433;53.016;-2.260;2022-09-23T18:16:46;15.10;96.90
59309;DHT22;48433;53.016;-2.260;2022-09-23T18:19:17;15.00;97.20
59309;DHT22;48433;53.016;-2.260;2022-09-23T18:21:50;14.90;97.90
59309;DHT22;48433;53.016;-2.260;2022-09-23T18:24:18;14.90;98.40
59309;DHT22;48433;53.016;-2.260;2022-09-23T18:27:01;14.70;98.80
59309;DHT22;48433;53.016;-2.260;2022-09-23T18:29:29;14.60;99.20
59309;DHT22;48433;53.016;-2.260;2022-09-23T18:31:56;14.60;99.70
59309;DHT22;48433;53.016;-2.260;2022-09-23T18:34:25;14.50;99.90